createdAt,value
2023-07-24T00:01:03.212Z,5.00
2023-07-24T00:03:33.136Z,5.15
2023-07-24T00:06:05.870Z,5.82
2023-07-24T00:08:35.774Z,5.20
2023-07-24T00:11:06.801Z,4.85
2023-07-24T00:13:36.643Z,5.13
2023-07-24T00:16:10.731Z,4.75
2023-07-24T00:18:40.794Z,5.10
2023-07-24T00:21:14.728Z,4.70
2023-07-24T00:23:44.637Z,6.10
2023-07-24T00:26:14.574Z,5.68
2023-07-24T00:28:44.423Z,5.03
2023-07-24T00:31:14.303Z,5.45
2023-07-24T00:33:44.410Z,5.65
2023-07-24T00:36:16.861Z,5.15
2023-07-24T00:38:46.686Z,4.78
2023-07-24T00:41:16.563Z,4.50
2023-07-24T00:43:47.404Z,4.20
2023-07-24T00:46:18.247Z,5.30
2023-07-24T00:48:48.374Z,5.45
2023-07-24T00:51:21.067Z,4.93
2023-07-24T00:53:51.007Z,4.68
2023-07-24T00:56:20.913Z,4.90
2023-07-24T00:58:51.891Z,4.20
2023-07-24T01:01:27.203Z,4.07
2023-07-24T01:03:58.123Z,4.45
2023-07-24T01:06:30.848Z,4.55
2023-07-24T01:09:00.944Z,4.32
2023-07-24T01:11:37.140Z,4.88
2023-07-24T01:14:14.479Z,4.75
2023-07-24T01:16:46.207Z,4.57
2023-07-24T01:19:24.323Z,3.92
2023-07-24T01:22:06.019Z,4.95
2023-07-24T01:24:46.444Z,5.28
2023-07-24T01:27:24.490Z,5.28
2023-07-24T01:29:54.327Z,5.95
2023-07-24T01:32:24.524Z,4.80
2023-07-24T01:34:55.624Z,5.30
2023-07-24T01:37:28.909Z,5.57
2023-07-24T01:40:01.470Z,5.78
2023-07-24T01:42:34.621Z,5.05
2023-07-24T01:45:06.166Z,5.15
2023-07-24T01:47:36.451Z,5.78
2023-07-24T01:50:06.681Z,5.40
2023-07-24T01:52:36.526Z,6.43
2023-07-24T01:55:06.586Z,5.22
2023-07-24T01:57:39.014Z,5.30
2023-07-24T02:00:11.656Z,5.93
2023-07-24T02:02:41.601Z,5.97
2023-07-24T02:05:13.253Z,6.57
2023-07-24T02:07:43.101Z,6.10
2023-07-24T02:10:13.719Z,6.10
2023-07-24T02:12:46.212Z,5.22
2023-07-24T02:15:16.101Z,5.97
2023-07-24T02:17:46.368Z,5.30
2023-07-24T02:20:16.281Z,5.85
2023-07-24T02:22:46.128Z,5.95
2023-07-24T02:25:15.991Z,5.45
2023-07-24T02:27:50.344Z,5.88
2023-07-24T02:30:20.403Z,5.70
2023-07-24T02:32:50.280Z,6.03
2023-07-24T02:35:20.440Z,5.68
2023-07-24T02:37:50.341Z,5.95
2023-07-24T02:40:20.188Z,5.47
2023-07-24T02:42:52.651Z,5.57
2023-07-24T02:45:22.525Z,5.65
2023-07-24T02:47:52.425Z,5.60
2023-07-24T02:50:22.358Z,5.60
2023-07-24T02:52:52.187Z,5.50
2023-07-24T02:55:21.999Z,5.78
2023-07-24T02:57:54.671Z,5.15
2023-07-24T03:00:27.156Z,5.18
2023-07-24T03:02:57.088Z,5.13
2023-07-24T03:05:27.020Z,4.50
2023-07-24T03:07:56.906Z,5.75
2023-07-24T03:10:26.832Z,4.88
2023-07-24T03:12:59.247Z,5.35
2023-07-24T03:15:29.209Z,5.90
2023-07-24T03:17:59.128Z,6.28
2023-07-24T03:20:28.970Z,5.35
2023-07-24T03:22:58.838Z,5.78
2023-07-24T03:25:28.705Z,5.60
2023-07-24T03:28:01.116Z,5.30
2023-07-24T03:30:31.009Z,5.22
2023-07-24T03:33:02.599Z,5.47
2023-07-24T03:35:32.522Z,5.80
2023-07-24T03:38:02.372Z,5.97
2023-07-24T03:40:32.234Z,5.45
2023-07-24T03:43:04.747Z,5.22
2023-07-24T03:45:35.189Z,4.85
2023-07-24T03:48:05.098Z,5.35
2023-07-24T03:50:34.958Z,5.22
2023-07-24T03:53:04.826Z,5.78
2023-07-24T03:55:34.705Z,4.78
2023-07-24T03:58:07.565Z,5.72
2023-07-24T04:00:37.664Z,5.57
2023-07-24T04:03:07.705Z,5.13
2023-07-24T04:05:38.863Z,4.70
2023-07-24T04:08:08.725Z,4.88
2023-07-24T04:10:38.746Z,5.05
2023-07-24T04:13:11.288Z,4.60
2023-07-24T04:15:41.139Z,4.72
2023-07-24T04:18:11.145Z,4.68
2023-07-24T04:20:41.286Z,4.38
2023-07-24T04:23:11.159Z,4.78
2023-07-24T04:25:41.720Z,4.57
2023-07-24T04:28:14.160Z,5.20
2023-07-24T04:30:44.088Z,5.03
2023-07-24T04:33:13.952Z,4.20
2023-07-24T04:35:43.967Z,4.70
2023-07-24T04:38:13.825Z,4.32
2023-07-24T04:40:43.691Z,4.38
2023-07-24T04:43:16.224Z,5.15
2023-07-24T04:45:46.087Z,4.18
2023-07-24T04:48:15.919Z,4.90
2023-07-24T04:50:45.799Z,3.80
2023-07-24T04:53:15.760Z,4.18
2023-07-24T04:55:45.594Z,4.65
2023-07-24T04:58:18.308Z,4.65
2023-07-24T05:00:50.592Z,3.80
2023-07-24T05:03:20.894Z,3.92
2023-07-24T05:05:52.739Z,4.00
2023-07-24T05:08:22.549Z,4.38
2023-07-24T05:10:58.164Z,4.13
2023-07-24T05:13:30.961Z,4.60
2023-07-24T05:16:00.874Z,4.25
2023-07-24T05:18:30.942Z,4.40
2023-07-24T05:21:00.810Z,4.25
2023-07-24T05:23:30.706Z,4.57
2023-07-24T05:26:02.575Z,4.80
2023-07-24T05:28:36.506Z,4.38
2023-07-24T05:31:07.234Z,5.00
2023-07-24T05:33:37.164Z,4.97
2023-07-24T05:36:08.301Z,4.80
2023-07-24T05:38:38.198Z,4.57
2023-07-24T05:41:08.199Z,4.30
2023-07-24T05:43:40.646Z,4.28
2023-07-24T05:46:10.599Z,4.43
2023-07-24T05:48:40.478Z,5.03
2023-07-24T05:51:10.355Z,4.25
2023-07-24T05:53:40.177Z,4.43
2023-07-24T05:56:10.053Z,4.43
2023-07-24T05:58:42.574Z,4.90
2023-07-24T06:01:13.626Z,4.28
2023-07-24T06:03:43.565Z,5.10
2023-07-24T06:06:13.477Z,4.65
2023-07-24T06:08:43.328Z,4.45
2023-07-24T06:11:13.149Z,5.13
2023-07-24T06:13:45.734Z,4.35
2023-07-24T06:16:15.638Z,4.63
2023-07-24T06:18:45.631Z,4.88
2023-07-24T06:21:15.515Z,5.18
2023-07-24T06:23:45.403Z,4.57
2023-07-24T06:26:15.311Z,4.68
2023-07-24T06:28:47.853Z,4.30
2023-07-24T06:31:15.197Z,5.32
2023-07-24T06:33:45.293Z,4.53
2023-07-24T06:36:15.228Z,4.95
2023-07-24T06:38:45.636Z,4.90
2023-07-24T06:41:16.744Z,5.30
2023-07-24T06:43:49.257Z,5.40
2023-07-24T06:46:20.161Z,5.03
2023-07-24T06:48:50.086Z,4.70
2023-07-24T06:51:19.984Z,4.43
2023-07-24T06:53:49.846Z,4.72
2023-07-24T06:56:19.728Z,4.60
2023-07-24T06:58:52.202Z,4.22
2023-07-24T07:01:22.123Z,4.38
2023-07-24T07:03:52.155Z,4.32
2023-07-24T07:08:54.853Z,4.97
2023-07-24T07:11:24.783Z,4.68
2023-07-24T07:13:57.280Z,4.63
2023-07-24T07:16:27.109Z,4.20
2023-07-24T07:18:56.999Z,4.53
2023-07-24T07:21:26.971Z,4.53
2023-07-24T07:23:56.929Z,5.13
2023-07-24T07:26:26.882Z,4.07
2023-07-24T07:28:59.357Z,4.10
2023-07-24T07:31:29.385Z,4.50
2023-07-24T07:34:00.056Z,4.35
2023-07-24T07:36:30.135Z,4.10
2023-07-24T07:39:00.100Z,4.70
2023-07-24T07:41:29.930Z,4.93
2023-07-24T07:44:02.726Z,4.70
2023-07-24T07:46:32.860Z,4.45
2023-07-24T07:49:02.972Z,4.82
2023-07-24T07:51:32.797Z,4.47
2023-07-24T07:54:02.701Z,3.90
2023-07-24T07:56:32.809Z,5.25
2023-07-24T07:59:05.303Z,4.18
2023-07-24T08:01:35.568Z,4.35
2023-07-24T08:04:05.365Z,4.20
2023-07-24T08:06:36.696Z,4.93
2023-07-24T08:09:06.737Z,4.90
2023-07-24T08:11:36.711Z,4.43
2023-07-24T08:14:09.570Z,4.10
2023-07-24T08:16:39.487Z,4.45
2023-07-24T08:19:09.420Z,5.40
2023-07-24T08:21:40.342Z,6.05
2023-07-24T08:24:10.383Z,4.80
2023-07-24T08:26:40.266Z,4.63
2023-07-24T08:29:12.714Z,4.20
2023-07-24T08:31:42.664Z,5.30
2023-07-24T08:34:12.627Z,4.40
2023-07-24T08:36:42.568Z,4.60
2023-07-24T08:39:12.406Z,4.10
2023-07-24T08:41:42.305Z,4.22
2023-07-24T08:44:15.196Z,4.72
2023-07-24T08:46:47.305Z,4.32
2023-07-24T08:49:17.817Z,4.90
2023-07-24T08:51:49.916Z,5.28
2023-07-24T08:54:20.963Z,5.80
2023-07-24T08:56:51.620Z,5.57
2023-07-24T08:59:24.089Z,5.50
2023-07-24T09:01:55.807Z,4.85
2023-07-24T09:04:26.215Z,4.90
2023-07-24T09:06:57.030Z,4.03
2023-07-24T09:09:26.850Z,4.57
2023-07-24T09:12:00.516Z,5.00
2023-07-24T09:14:34.018Z,5.35
2023-07-24T09:17:08.310Z,5.55
2023-07-24T09:19:38.816Z,5.07
2023-07-24T09:22:14.120Z,4.30
2023-07-24T09:24:54.303Z,4.35
2023-07-24T09:27:25.126Z,4.07
2023-07-24T09:29:58.653Z,4.28
2023-07-24T09:32:32.255Z,4.95
2023-07-24T09:35:03.299Z,4.85
2023-07-24T09:37:35.312Z,5.20
2023-07-24T09:40:08.214Z,4.45
2023-07-24T09:42:52.933Z,4.35
2023-07-24T09:45:36.318Z,4.45
2023-07-24T09:48:09.953Z,5.50
2023-07-24T09:50:42.548Z,6.32
2023-07-24T09:53:16.807Z,5.43
2023-07-24T09:55:54.089Z,4.72
2023-07-24T09:58:25.944Z,4.55
2023-07-24T10:00:59.009Z,3.92
2023-07-24T10:03:29.645Z,5.28
2023-07-24T10:06:00.766Z,3.95
2023-07-24T10:08:39.607Z,4.05
2023-07-24T10:11:10.526Z,4.97
2023-07-24T10:13:41.071Z,4.70
2023-07-24T10:16:14.540Z,5.10
2023-07-24T10:18:48.248Z,5.68
2023-07-24T10:21:18.272Z,5.43
2023-07-24T10:23:50.430Z,6.38
2023-07-24T10:26:21.499Z,5.07
2023-07-24T10:28:52.736Z,4.80
2023-07-24T10:31:30.518Z,6.05
2023-07-24T10:34:08.264Z,6.15
2023-07-24T10:36:40.449Z,6.07
2023-07-24T10:39:19.990Z,6.85
2023-07-24T10:41:50.233Z,5.80
2023-07-24T10:44:20.098Z,5.43
2023-07-24T10:46:53.635Z,6.93
2023-07-24T10:49:26.212Z,5.20
2023-07-24T10:51:59.769Z,5.90
2023-07-24T10:54:29.854Z,6.75
2023-07-24T10:57:03.895Z,6.53
2023-07-24T10:59:41.220Z,6.18
2023-07-24T11:02:14.497Z,5.82
2023-07-24T11:04:44.412Z,5.82
2023-07-24T11:07:14.758Z,5.70
2023-07-24T11:09:45.298Z,4.35
2023-07-24T11:12:20.447Z,5.95
2023-07-24T11:14:55.432Z,4.97
2023-07-24T11:17:39.954Z,5.75
2023-07-24T11:20:12.126Z,5.30
2023-07-24T11:22:46.373Z,5.82
2023-07-24T11:25:16.277Z,6.00
2023-07-24T11:27:48.872Z,4.57
2023-07-24T11:30:24.898Z,5.45
2023-07-24T11:32:57.809Z,5.07
2023-07-24T11:35:27.899Z,4.95
2023-07-24T11:37:58.044Z,5.68
2023-07-24T11:40:36.120Z,4.63
2023-07-24T11:43:07.834Z,5.28
2023-07-24T11:45:45.886Z,4.50
2023-07-24T11:48:18.681Z,5.60
2023-07-24T11:50:49.912Z,5.07
2023-07-24T11:53:28.899Z,5.32
2023-07-24T11:56:00.291Z,5.07
2023-07-24T11:58:31.141Z,4.97
2023-07-24T12:01:01.292Z,5.10
2023-07-24T12:03:34.453Z,4.85
2023-07-24T12:06:05.507Z,4.32
2023-07-24T12:08:36.891Z,4.10
2023-07-24T12:11:07.155Z,4.03
2023-07-24T12:13:37.785Z,3.90
2023-07-24T12:16:08.403Z,3.90
2023-07-24T12:18:40.871Z,3.45
2023-07-24T12:21:10.690Z,3.05
2023-07-24T12:23:40.700Z,2.65
2023-07-24T12:26:10.675Z,2.80
2023-07-24T12:28:40.536Z,2.63
2023-07-24T12:31:10.394Z,2.20
2023-07-24T12:33:42.935Z,2.00
2023-07-24T12:36:12.862Z,1.85
2023-07-24T12:38:42.694Z,1.80
2023-07-24T12:41:12.564Z,1.67
2023-07-24T12:43:42.413Z,1.80
2023-07-24T12:46:12.309Z,1.58
2023-07-24T12:48:44.892Z,1.40
2023-07-24T12:51:14.715Z,1.33
2023-07-24T12:53:49.430Z,1.15
2023-07-24T12:56:25.251Z,1.48
2023-07-24T12:58:55.134Z,1.48
2023-07-24T13:01:25.388Z,1.60
2023-07-24T13:03:57.848Z,1.45
2023-07-24T13:06:28.621Z,1.42
2023-07-24T13:08:58.810Z,1.60
2023-07-24T13:11:29.765Z,1.80
2023-07-24T13:14:00.503Z,1.77
2023-07-24T13:16:31.836Z,1.70
2023-07-24T13:19:04.665Z,1.58
2023-07-24T13:21:34.622Z,1.40
2023-07-24T13:24:04.504Z,1.27
2023-07-24T13:26:34.343Z,1.40
2023-07-24T13:29:07.078Z,1.45
2023-07-24T13:31:36.960Z,1.70
2023-07-24T13:34:09.497Z,1.60
2023-07-24T13:36:39.495Z,2.40
2023-07-24T13:39:09.395Z,2.22
2023-07-24T13:41:39.651Z,2.17
2023-07-24T13:44:09.491Z,2.53
2023-07-24T13:46:40.665Z,1.95
2023-07-24T13:49:14.091Z,2.10
2023-07-24T13:51:43.930Z,2.30
2023-07-24T13:54:13.812Z,2.38
2023-07-24T13:56:43.726Z,2.20
2023-07-24T13:59:13.577Z,2.30
2023-07-24T14:01:45.028Z,2.00
2023-07-24T14:04:19.074Z,2.38
2023-07-24T14:06:49.181Z,2.05
2023-07-24T14:09:18.995Z,2.13
2023-07-24T14:11:48.861Z,2.10
2023-07-24T14:14:21.981Z,2.00
2023-07-24T14:16:51.844Z,2.08
2023-07-24T14:19:24.829Z,1.88
2023-07-24T14:21:54.966Z,1.60
2023-07-24T14:24:24.853Z,1.63
2023-07-24T14:26:54.700Z,1.73
2023-07-24T14:29:24.598Z,1.70
2023-07-24T14:31:54.460Z,1.60
2023-07-24T14:34:27.748Z,1.48
2023-07-24T14:36:57.777Z,1.42
2023-07-24T14:39:27.655Z,1.33
2023-07-24T14:41:57.618Z,1.25
2023-07-24T14:44:27.647Z,1.80
2023-07-24T14:46:57.974Z,1.23
2023-07-24T14:49:30.503Z,1.55
2023-07-24T14:52:00.563Z,1.50
2023-07-24T14:54:30.393Z,1.80
2023-07-24T14:57:10.736Z,1.60
2023-07-24T14:59:53.163Z,1.55
2023-07-24T15:02:23.887Z,1.75
2023-07-24T15:04:56.459Z,1.92
2023-07-24T15:07:26.294Z,2.13
2023-07-24T15:09:56.378Z,1.60
2023-07-24T15:12:26.474Z,1.80
2023-07-24T15:14:56.302Z,2.00
2023-07-24T15:17:26.259Z,1.85
2023-07-24T15:19:58.922Z,1.83
2023-07-24T15:22:28.780Z,1.90
2023-07-24T15:24:58.692Z,1.33
2023-07-24T15:27:28.583Z,1.40
2023-07-24T15:29:58.460Z,1.48
2023-07-24T15:32:28.316Z,1.40
2023-07-24T15:35:01.653Z,1.45
2023-07-24T15:37:32.587Z,1.70
2023-07-24T15:40:03.084Z,1.88
2023-07-24T15:42:32.949Z,2.13
2023-07-24T15:45:02.893Z,1.60
2023-07-24T15:47:32.804Z,2.15
2023-07-24T15:50:06.124Z,2.53
2023-07-24T15:52:36.073Z,1.50
2023-07-24T15:55:05.963Z,1.52
2023-07-24T15:57:35.832Z,1.27
2023-07-24T16:00:06.717Z,0.98
2023-07-24T16:02:36.681Z,1.10
2023-07-24T16:05:20.280Z,1.20
2023-07-24T16:07:50.980Z,1.30
2023-07-24T16:10:21.790Z,1.17
2023-07-24T16:12:51.598Z,1.27
2023-07-24T16:15:44.264Z,1.50
2023-07-24T16:18:16.379Z,1.35
2023-07-24T16:20:52.238Z,1.40
2023-07-24T16:23:22.147Z,1.40
2023-07-24T16:25:54.460Z,1.30
2023-07-24T16:28:24.421Z,1.30
2023-07-24T16:30:59.394Z,1.60
2023-07-24T16:33:31.207Z,1.50
2023-07-24T16:36:04.070Z,1.42
2023-07-24T16:38:33.906Z,1.30
2023-07-24T16:41:04.811Z,1.50
2023-07-24T16:43:38.953Z,2.00
2023-07-24T16:46:25.746Z,1.73
2023-07-24T16:48:56.199Z,1.63
2023-07-24T16:51:29.593Z,1.55
2023-07-24T16:53:59.752Z,1.38
2023-07-24T16:56:29.619Z,1.60
2023-07-24T16:58:59.508Z,1.50
2023-07-24T17:01:31.325Z,1.30
2023-07-24T17:04:01.732Z,1.25
2023-07-24T17:06:34.274Z,1.25
2023-07-24T17:09:04.118Z,1.60
2023-07-24T17:11:34.747Z,1.63
2023-07-24T17:14:04.811Z,1.40
2023-07-24T17:16:34.715Z,1.13
2023-07-24T17:19:04.560Z,1.63
2023-07-24T17:21:37.012Z,1.88
2023-07-24T17:24:07.828Z,1.60
2023-07-24T17:26:37.888Z,1.45
2023-07-24T17:29:07.733Z,1.45
2023-07-24T17:31:37.802Z,1.60
2023-07-24T17:34:07.634Z,1.88
2023-07-24T17:36:40.101Z,1.33
2023-07-24T17:39:10.300Z,1.67
2023-07-24T17:41:42.062Z,1.40
2023-07-24T17:44:11.940Z,1.50
2023-07-24T17:46:41.823Z,1.70
2023-07-24T17:49:11.696Z,1.73
2023-07-24T17:51:44.236Z,2.03
2023-07-24T17:54:14.196Z,1.70
2023-07-24T17:56:44.499Z,1.80
2023-07-24T17:59:14.332Z,1.92
2023-07-24T18:01:44.246Z,2.10
2023-07-24T18:04:15.100Z,1.65
2023-07-24T18:06:48.587Z,1.90
2023-07-24T18:09:20.266Z,1.90
2023-07-24T18:11:51.378Z,2.10
2023-07-24T18:14:23.177Z,1.48
2023-07-24T18:16:54.136Z,1.90
2023-07-24T18:19:24.049Z,2.35
2023-07-24T18:21:56.505Z,1.92
2023-07-24T18:24:26.434Z,1.90
2023-07-24T18:26:58.117Z,2.00
2023-07-24T18:29:28.089Z,1.70
2023-07-24T18:31:58.047Z,2.13
2023-07-24T18:34:27.926Z,2.20
2023-07-24T18:37:00.412Z,1.75
2023-07-24T18:39:30.317Z,2.28
2023-07-24T18:42:00.262Z,1.83
2023-07-24T18:44:30.120Z,1.92
2023-07-24T18:47:00.079Z,1.83
2023-07-24T18:49:29.931Z,2.00
2023-07-24T18:52:02.429Z,1.98
2023-07-24T18:54:32.263Z,2.00
2023-07-24T18:57:02.057Z,1.83
2023-07-24T18:59:32.259Z,2.08
2023-07-24T19:02:03.947Z,1.90
2023-07-24T19:04:34.015Z,1.80
2023-07-24T19:07:07.049Z,1.75
2023-07-24T19:09:36.918Z,2.10
2023-07-24T19:12:08.116Z,1.70
2023-07-24T19:14:37.999Z,2.42
2023-07-24T19:17:08.511Z,2.30
2023-07-24T19:19:39.295Z,2.38
2023-07-24T19:22:11.848Z,2.35
2023-07-24T19:24:42.256Z,2.05
2023-07-24T19:27:12.114Z,2.42
2023-07-24T19:29:41.993Z,2.08
2023-07-24T19:32:11.881Z,2.10
2023-07-24T19:34:41.716Z,2.42
2023-07-24T19:37:14.287Z,1.90
2023-07-24T19:39:50.183Z,2.40
2023-07-24T19:42:26.787Z,2.15
2023-07-24T19:45:02.581Z,1.88
2023-07-24T19:47:36.624Z,2.10
2023-07-24T19:50:09.596Z,2.05
2023-07-24T19:52:42.617Z,2.40
2023-07-24T19:55:13.694Z,1.90
2023-07-24T19:57:46.166Z,1.77
2023-07-24T20:00:16.836Z,2.00
2023-07-24T20:02:51.709Z,2.08
2023-07-24T20:05:21.706Z,2.20
2023-07-24T20:07:54.195Z,2.30
2023-07-24T20:10:24.047Z,2.20
2023-07-24T20:12:54.178Z,2.00
2023-07-24T20:15:24.121Z,2.22
2023-07-24T20:17:54.064Z,2.10
2023-07-24T20:20:24.185Z,2.28
2023-07-24T20:22:57.204Z,2.13
2023-07-24T20:25:27.095Z,2.13
2023-07-24T20:27:56.976Z,2.22
2023-07-24T20:30:27.139Z,1.80
2023-07-24T20:32:57.103Z,1.65
2023-07-24T20:35:27.215Z,1.98
2023-07-24T20:38:01.510Z,1.77
2023-07-24T20:40:31.511Z,2.28
2023-07-24T20:43:01.440Z,1.95
2023-07-24T20:45:31.383Z,1.50
2023-07-24T20:48:01.336Z,2.00
2023-07-24T20:50:31.184Z,1.90
2023-07-24T20:53:03.683Z,2.05
2023-07-24T20:55:33.648Z,2.00
2023-07-24T20:58:03.673Z,1.88
2023-07-24T21:00:33.576Z,2.00
2023-07-24T21:03:03.895Z,2.13
2023-07-24T21:05:37.222Z,2.60
2023-07-24T21:08:10.632Z,2.10
2023-07-24T21:10:40.510Z,1.95
2023-07-24T21:13:11.215Z,1.90
2023-07-24T21:15:41.141Z,2.30
2023-07-24T21:18:10.983Z,2.00
2023-07-24T21:20:43.544Z,2.05
2023-07-24T21:23:16.120Z,1.95
2023-07-24T21:25:56.727Z,2.38
2023-07-24T21:28:27.249Z,2.05
2023-07-24T21:30:57.182Z,2.00
2023-07-24T21:33:27.075Z,2.22
2023-07-24T21:36:08.203Z,1.90
2023-07-24T21:38:42.383Z,2.10
2023-07-24T21:41:12.940Z,2.58
2023-07-24T21:43:42.913Z,2.15
2023-07-24T21:46:13.232Z,2.42
2023-07-24T21:48:43.086Z,2.42
2023-07-24T21:51:12.963Z,2.20
2023-07-24T21:53:45.394Z,1.77
2023-07-24T21:56:15.319Z,1.90
2023-07-24T21:58:45.185Z,1.70
2023-07-24T22:01:18.021Z,2.85
2023-07-24T22:03:47.870Z,1.90
2023-07-24T22:06:18.630Z,1.90
2023-07-24T22:08:51.115Z,2.30
2023-07-24T22:11:20.986Z,1.85
2023-07-24T22:13:50.906Z,1.77
2023-07-24T22:16:20.837Z,2.10
2023-07-24T22:18:50.682Z,1.65
2023-07-24T22:21:20.533Z,1.73
2023-07-24T22:23:52.991Z,2.10
2023-07-24T22:26:23.256Z,1.80
2023-07-24T22:28:53.087Z,1.67
2023-07-24T22:31:22.976Z,1.80
2023-07-24T22:33:52.884Z,1.80
2023-07-24T22:36:22.757Z,1.60
2023-07-24T22:38:55.263Z,1.92
2023-07-24T22:41:25.146Z,2.00
2023-07-24T22:43:54.964Z,2.20
2023-07-24T22:46:24.918Z,1.73
2023-07-24T22:48:54.859Z,1.90
2023-07-24T22:51:24.842Z,1.80
2023-07-24T22:53:57.706Z,2.00
2023-07-24T22:56:27.595Z,2.30
2023-07-24T22:59:21.974Z,1.80
2023-07-24T23:01:54.300Z,2.20
2023-07-24T23:04:25.724Z,2.15
2023-07-24T23:06:56.836Z,2.33
2023-07-24T23:09:29.595Z,2.08
2023-07-24T23:11:59.524Z,1.70
2023-07-24T23:14:29.372Z,1.77
2023-07-24T23:16:59.423Z,2.17
2023-07-24T23:19:29.430Z,1.70
2023-07-24T23:21:59.292Z,2.35
2023-07-24T23:24:31.768Z,2.47
2023-07-24T23:27:01.628Z,2.05
2023-07-24T23:29:31.531Z,2.20
2023-07-24T23:32:01.390Z,2.00
2023-07-24T23:34:33.966Z,1.80
2023-07-24T23:37:03.821Z,2.35
2023-07-24T23:39:36.271Z,2.40
2023-07-24T23:42:06.353Z,1.98
2023-07-24T23:44:36.212Z,1.98
2023-07-24T23:47:06.173Z,1.90
2023-07-24T23:49:36.001Z,2.22
2023-07-24T23:52:05.872Z,1.90
2023-07-24T23:54:38.338Z,2.00
2023-07-24T23:57:08.665Z,2.35
2023-07-24T23:59:38.505Z,2.00
